sensor_id;sensor_type;location;lat;lon;timestamp;P1;durP1;ratioP1;P2;durP2;ratioP2
15913;SDS011;8055;51.930;8.840;2022-10-23T00:00:52;6.38;;;3.00;;
15913;SDS011;8055;51.930;8.840;2022-10-23T00:03:17;7.95;;;2.78;;
15913;SDS011;8055;51.930;8.840;2022-10-23T00:05:43;7.15;;;2.78;;
15913;SDS011;8055;51.930;8.840;2022-10-23T00:08:09;4.70;;;2.65;;
15913;SDS011;8055;51.930;8.840;2022-10-23T00:10:39;9.32;;;3.17;;
15913;SDS011;8055;51.930;8.840;2022-10-23T00:13:05;8.43;;;3.00;;
15913;SDS011;8055;51.930;8.840;2022-10-23T00:15:31;10.95;;;2.90;;
15913;SDS011;8055;51.930;8.840;2022-10-23T00:17:59;10.70;;;2.75;;
15913;SDS011;8055;51.930;8.840;2022-10-23T00:20:24;9.90;;;3.47;;
15913;SDS011;8055;51.930;8.840;2022-10-23T00:22:49;10.05;;;2.90;;
15913;SDS011;8055;51.930;8.840;2022-10-23T00:25:15;14.75;;;3.53;;
15913;SDS011;8055;51.930;8.840;2022-10-23T00:27:40;7.57;;;3.38;;
15913;SDS011;8055;51.930;8.840;2022-10-23T00:30:06;9.55;;;3.90;;
15913;SDS011;8055;51.930;8.840;2022-10-23T00:32:31;11.20;;;3.55;;
15913;SDS011;8055;51.930;8.840;2022-10-23T00:34:57;8.63;;;3.63;;
15913;SDS011;8055;51.930;8.840;2022-10-23T00:37:22;8.88;;;3.65;;
15913;SDS011;8055;51.930;8.840;2022-10-23T00:39:47;10.18;;;4.40;;
15913;SDS011;8055;51.930;8.840;2022-10-23T00:42:14;7.57;;;4.30;;
15913;SDS011;8055;51.930;8.840;2022-10-23T00:47:06;8.00;;;3.57;;
15913;SDS011;8055;51.930;8.840;2022-10-23T00:49:32;13.35;;;4.05;;
15913;SDS011;8055;51.930;8.840;2022-10-23T00:51:58;8.13;;;3.97;;
15913;SDS011;8055;51.930;8.840;2022-10-23T00:54:28;10.35;;;3.80;;
15913;SDS011;8055;51.930;8.840;2022-10-23T00:56:59;9.57;;;3.88;;
15913;SDS011;8055;51.930;8.840;2022-10-23T00:59:28;11.60;;;4.65;;
15913;SDS011;8055;51.930;8.840;2022-10-23T01:01:54;8.82;;;4.13;;
15913;SDS011;8055;51.930;8.840;2022-10-23T01:04:20;11.30;;;4.50;;
15913;SDS011;8055;51.930;8.840;2022-10-23T01:06:52;11.95;;;5.13;;
15913;SDS011;8055;51.930;8.840;2022-10-23T01:09:32;9.95;;;4.45;;
15913;SDS011;8055;51.930;8.840;2022-10-23T01:12:14;10.60;;;5.03;;
15913;SDS011;8055;51.930;8.840;2022-10-23T01:15:02;11.55;;;5.38;;
15913;SDS011;8055;51.930;8.840;2022-10-23T01:17:36;14.07;;;5.53;;
15913;SDS011;8055;51.930;8.840;2022-10-23T01:23:01;15.13;;;5.35;;
15913;SDS011;8055;51.930;8.840;2022-10-23T01:28:43;16.40;;;5.70;;
15913;SDS011;8055;51.930;8.840;2022-10-23T01:34:02;14.15;;;6.70;;
15913;SDS011;8055;51.930;8.840;2022-10-23T01:36:33;11.85;;;6.28;;
15913;SDS011;8055;51.930;8.840;2022-10-23T01:39:37;16.08;;;5.95;;
15913;SDS011;8055;51.930;8.840;2022-10-23T01:42:02;12.70;;;4.80;;
15913;SDS011;8055;51.930;8.840;2022-10-23T01:47:01;14.15;;;5.03;;
15913;SDS011;8055;51.930;8.840;2022-10-23T01:49:30;13.13;;;5.60;;
15913;SDS011;8055;51.930;8.840;2022-10-23T01:51:58;7.82;;;5.30;;
15913;SDS011;8055;51.930;8.840;2022-10-23T01:54:30;15.48;;;5.70;;
15913;SDS011;8055;51.930;8.840;2022-10-23T01:57:00;9.15;;;5.82;;
15913;SDS011;8055;51.930;8.840;2022-10-23T01:59:29;13.05;;;7.18;;
15913;SDS011;8055;51.930;8.840;2022-10-23T02:04:26;13.52;;;9.63;;
15913;SDS011;8055;51.930;8.840;2022-10-23T02:09:23;23.25;;;12.32;;
15913;SDS011;8055;51.930;8.840;2022-10-23T02:11:51;20.75;;;13.27;;
15913;SDS011;8055;51.930;8.840;2022-10-23T02:20:21;19.60;;;11.85;;
15913;SDS011;8055;51.930;8.840;2022-10-23T02:22:54;16.73;;;11.13;;
15913;SDS011;8055;51.930;8.840;2022-10-23T02:25:43;20.60;;;10.68;;
15913;SDS011;8055;51.930;8.840;2022-10-23T02:28:12;17.63;;;10.55;;
15913;SDS011;8055;51.930;8.840;2022-10-23T02:30:42;14.85;;;10.60;;
15913;SDS011;8055;51.930;8.840;2022-10-23T02:33:12;20.55;;;11.90;;
15913;SDS011;8055;51.930;8.840;2022-10-23T02:35:38;17.30;;;11.48;;
15913;SDS011;8055;51.930;8.840;2022-10-23T02:38:25;21.90;;;13.52;;
15913;SDS011;8055;51.930;8.840;2022-10-23T02:40:52;22.27;;;14.02;;
15913;SDS011;8055;51.930;8.840;2022-10-23T02:46:08;24.63;;;14.23;;
15913;SDS011;8055;51.930;8.840;2022-10-23T02:48:42;18.38;;;12.32;;
15913;SDS011;8055;51.930;8.840;2022-10-23T02:51:17;19.27;;;14.30;;
15913;SDS011;8055;51.930;8.840;2022-10-23T02:54:41;18.23;;;13.48;;
15913;SDS011;8055;51.930;8.840;2022-10-23T02:57:23;21.20;;;13.18;;
15913;SDS011;8055;51.930;8.840;2022-10-23T03:00:12;19.23;;;11.32;;
15913;SDS011;8055;51.930;8.840;2022-10-23T03:02:43;21.13;;;12.57;;
15913;SDS011;8055;51.930;8.840;2022-10-23T03:05:19;17.90;;;12.25;;
15913;SDS011;8055;51.930;8.840;2022-10-23T03:07:46;23.88;;;12.52;;
15913;SDS011;8055;51.930;8.840;2022-10-23T03:10:13;22.50;;;12.73;;
15913;SDS011;8055;51.930;8.840;2022-10-23T03:12:38;18.58;;;12.45;;
15913;SDS011;8055;51.930;8.840;2022-10-23T03:15:05;19.17;;;11.48;;
15913;SDS011;8055;51.930;8.840;2022-10-23T03:17:31;18.83;;;11.38;;
15913;SDS011;8055;51.930;8.840;2022-10-23T03:19:56;18.33;;;9.95;;
15913;SDS011;8055;51.930;8.840;2022-10-23T03:22:22;19.98;;;9.60;;
15913;SDS011;8055;51.930;8.840;2022-10-23T03:24:47;18.23;;;10.20;;
15913;SDS011;8055;51.930;8.840;2022-10-23T03:27:13;18.23;;;9.73;;
15913;SDS011;8055;51.930;8.840;2022-10-23T03:29:38;20.67;;;10.25;;
15913;SDS011;8055;51.930;8.840;2022-10-23T03:32:04;15.45;;;9.60;;
15913;SDS011;8055;51.930;8.840;2022-10-23T03:34:30;19.00;;;9.68;;
15913;SDS011;8055;51.930;8.840;2022-10-23T03:36:55;16.95;;;9.95;;
15913;SDS011;8055;51.930;8.840;2022-10-23T03:39:20;17.30;;;10.27;;
15913;SDS011;8055;51.930;8.840;2022-10-23T03:41:46;17.63;;;11.20;;
15913;SDS011;8055;51.930;8.840;2022-10-23T03:44:11;16.33;;;10.90;;
15913;SDS011;8055;51.930;8.840;2022-10-23T03:46:37;21.42;;;11.20;;
15913;SDS011;8055;51.930;8.840;2022-10-23T03:49:02;16.98;;;11.18;;
15913;SDS011;8055;51.930;8.840;2022-10-23T03:51:28;19.50;;;11.57;;
15913;SDS011;8055;51.930;8.840;2022-10-23T03:53:53;23.70;;;12.18;;
15913;SDS011;8055;51.930;8.840;2022-10-23T03:56:19;23.17;;;13.00;;
15913;SDS011;8055;51.930;8.840;2022-10-23T03:58:44;20.05;;;12.70;;
15913;SDS011;8055;51.930;8.840;2022-10-23T04:01:10;18.90;;;12.45;;
15913;SDS011;8055;51.930;8.840;2022-10-23T04:03:35;17.60;;;12.70;;
15913;SDS011;8055;51.930;8.840;2022-10-23T04:06:00;19.60;;;13.35;;
15913;SDS011;8055;51.930;8.840;2022-10-23T04:08:26;21.80;;;14.95;;
15913;SDS011;8055;51.930;8.840;2022-10-23T04:10:52;23.08;;;15.52;;
15913;SDS011;8055;51.930;8.840;2022-10-23T04:13:18;26.88;;;16.40;;
15913;SDS011;8055;51.930;8.840;2022-10-23T04:15:50;23.90;;;16.90;;
15913;SDS011;8055;51.930;8.840;2022-10-23T04:18:16;22.50;;;16.63;;
15913;SDS011;8055;51.930;8.840;2022-10-23T04:20:42;22.45;;;16.63;;
15913;SDS011;8055;51.930;8.840;2022-10-23T04:23:08;22.50;;;15.63;;
15913;SDS011;8055;51.930;8.840;2022-10-23T04:25:33;20.80;;;15.25;;
15913;SDS011;8055;51.930;8.840;2022-10-23T04:27:58;24.65;;;15.68;;
15913;SDS011;8055;51.930;8.840;2022-10-23T04:30:24;20.85;;;16.38;;
15913;SDS011;8055;51.930;8.840;2022-10-23T04:32:49;25.48;;;18.00;;
15913;SDS011;8055;51.930;8.840;2022-10-23T04:35:15;26.95;;;16.63;;
15913;SDS011;8055;51.930;8.840;2022-10-23T04:37:41;21.20;;;16.80;;
15913;SDS011;8055;51.930;8.840;2022-10-23T04:40:07;23.40;;;16.05;;
15913;SDS011;8055;51.930;8.840;2022-10-23T04:42:33;23.27;;;15.60;;
15913;SDS011;8055;51.930;8.840;2022-10-23T04:44:58;19.88;;;15.38;;
15913;SDS011;8055;51.930;8.840;2022-10-23T04:47:23;21.70;;;15.23;;
15913;SDS011;8055;51.930;8.840;2022-10-23T04:49:49;20.02;;;14.88;;
15913;SDS011;8055;51.930;8.840;2022-10-23T04:52:14;20.27;;;13.00;;
15913;SDS011;8055;51.930;8.840;2022-10-23T04:54:40;19.60;;;14.60;;
15913;SDS011;8055;51.930;8.840;2022-10-23T04:57:05;19.92;;;13.75;;
15913;SDS011;8055;51.930;8.840;2022-10-23T04:59:30;18.65;;;13.95;;
15913;SDS011;8055;51.930;8.840;2022-10-23T05:01:56;17.25;;;14.05;;
15913;SDS011;8055;51.930;8.840;2022-10-23T05:04:21;21.90;;;13.82;;
15913;SDS011;8055;51.930;8.840;2022-10-23T05:06:47;18.77;;;12.70;;
15913;SDS011;8055;51.930;8.840;2022-10-23T05:09:12;22.55;;;14.18;;
15913;SDS011;8055;51.930;8.840;2022-10-23T05:11:37;17.20;;;11.90;;
15913;SDS011;8055;51.930;8.840;2022-10-23T05:14:03;14.30;;;12.13;;
15913;SDS011;8055;51.930;8.840;2022-10-23T05:16:51;17.23;;;12.73;;
15913;SDS011;8055;51.930;8.840;2022-10-23T05:19:24;15.55;;;11.70;;
15913;SDS011;8055;51.930;8.840;2022-10-23T05:21:53;15.00;;;11.32;;
15913;SDS011;8055;51.930;8.840;2022-10-23T05:24:23;16.40;;;11.73;;
15913;SDS011;8055;51.930;8.840;2022-10-23T05:26:50;23.48;;;12.57;;
15913;SDS011;8055;51.930;8.840;2022-10-23T05:29:17;18.73;;;13.00;;
15913;SDS011;8055;51.930;8.840;2022-10-23T05:31:43;17.10;;;12.23;;
15913;SDS011;8055;51.930;8.840;2022-10-23T05:34:09;17.95;;;13.23;;
15913;SDS011;8055;51.930;8.840;2022-10-23T05:36:37;15.85;;;12.73;;
15913;SDS011;8055;51.930;8.840;2022-10-23T05:39:03;17.40;;;13.38;;
15913;SDS011;8055;51.930;8.840;2022-10-23T05:41:29;20.98;;;16.13;;
15913;SDS011;8055;51.930;8.840;2022-10-23T05:43:55;24.77;;;17.17;;
15913;SDS011;8055;51.930;8.840;2022-10-23T05:46:20;23.73;;;17.65;;
15913;SDS011;8055;51.930;8.840;2022-10-23T05:48:50;20.60;;;15.50;;
15913;SDS011;8055;51.930;8.840;2022-10-23T05:51:16;23.83;;;16.67;;
15913;SDS011;8055;51.930;8.840;2022-10-23T05:53:47;20.27;;;16.35;;
15913;SDS011;8055;51.930;8.840;2022-10-23T05:56:13;22.90;;;17.73;;
15913;SDS011;8055;51.930;8.840;2022-10-23T05:58:38;23.77;;;16.40;;
15913;SDS011;8055;51.930;8.840;2022-10-23T06:01:05;23.45;;;16.73;;
15913;SDS011;8055;51.930;8.840;2022-10-23T06:03:32;22.45;;;16.40;;
15913;SDS011;8055;51.930;8.840;2022-10-23T06:05:57;22.90;;;16.95;;
15913;SDS011;8055;51.930;8.840;2022-10-23T06:08:22;23.83;;;16.67;;
15913;SDS011;8055;51.930;8.840;2022-10-23T06:10:48;24.52;;;16.92;;
15913;SDS011;8055;51.930;8.840;2022-10-23T06:13:14;21.98;;;17.60;;
15913;SDS011;8055;51.930;8.840;2022-10-23T06:15:39;24.02;;;16.50;;
15913;SDS011;8055;51.930;8.840;2022-10-23T06:18:05;24.52;;;17.13;;
15913;SDS011;8055;51.930;8.840;2022-10-23T06:20:30;25.35;;;18.38;;
15913;SDS011;8055;51.930;8.840;2022-10-23T06:22:56;25.60;;;16.05;;
15913;SDS011;8055;51.930;8.840;2022-10-23T06:25:21;25.02;;;18.58;;
15913;SDS011;8055;51.930;8.840;2022-10-23T06:27:46;24.90;;;17.50;;
15913;SDS011;8055;51.930;8.840;2022-10-23T06:30:12;23.73;;;17.67;;
15913;SDS011;8055;51.930;8.840;2022-10-23T06:32:37;25.70;;;16.42;;
15913;SDS011;8055;51.930;8.840;2022-10-23T06:35:03;20.65;;;15.65;;
15913;SDS011;8055;51.930;8.840;2022-10-23T06:37:29;20.48;;;15.52;;
15913;SDS011;8055;51.930;8.840;2022-10-23T06:39:54;22.92;;;15.48;;
15913;SDS011;8055;51.930;8.840;2022-10-23T06:42:20;26.33;;;15.88;;
15913;SDS011;8055;51.930;8.840;2022-10-23T06:44:45;18.23;;;13.90;;
15913;SDS011;8055;51.930;8.840;2022-10-23T06:47:10;20.23;;;13.95;;
15913;SDS011;8055;51.930;8.840;2022-10-23T06:49:38;19.95;;;13.88;;
15913;SDS011;8055;51.930;8.840;2022-10-23T06:52:03;18.13;;;13.95;;
15913;SDS011;8055;51.930;8.840;2022-10-23T06:54:29;19.58;;;13.43;;
15913;SDS011;8055;51.930;8.840;2022-10-23T06:56:54;24.13;;;13.48;;
15913;SDS011;8055;51.930;8.840;2022-10-23T06:59:20;19.13;;;13.73;;
15913;SDS011;8055;51.930;8.840;2022-10-23T07:01:45;21.50;;;13.65;;
15913;SDS011;8055;51.930;8.840;2022-10-23T07:04:10;20.42;;;13.07;;
15913;SDS011;8055;51.930;8.840;2022-10-23T07:06:38;20.20;;;13.20;;
15913;SDS011;8055;51.930;8.840;2022-10-23T07:09:04;17.63;;;12.00;;
15913;SDS011;8055;51.930;8.840;2022-10-23T07:11:29;15.60;;;11.20;;
15913;SDS011;8055;51.930;8.840;2022-10-23T07:13:54;14.32;;;10.98;;
15913;SDS011;8055;51.930;8.840;2022-10-23T07:16:21;17.45;;;11.18;;
15913;SDS011;8055;51.930;8.840;2022-10-23T07:18:47;15.15;;;12.32;;
15913;SDS011;8055;51.930;8.840;2022-10-23T07:21:14;25.20;;;14.45;;
15913;SDS011;8055;51.930;8.840;2022-10-23T07:23:39;18.58;;;13.25;;
15913;SDS011;8055;51.930;8.840;2022-10-23T07:26:06;19.83;;;13.15;;
15913;SDS011;8055;51.930;8.840;2022-10-23T07:28:39;20.30;;;13.65;;
15913;SDS011;8055;51.930;8.840;2022-10-23T07:31:06;19.13;;;13.07;;
15913;SDS011;8055;51.930;8.840;2022-10-23T07:33:32;18.20;;;12.75;;
15913;SDS011;8055;51.930;8.840;2022-10-23T07:35:58;18.40;;;12.45;;
15913;SDS011;8055;51.930;8.840;2022-10-23T07:38:24;22.35;;;13.10;;
15913;SDS011;8055;51.930;8.840;2022-10-23T07:40:49;17.38;;;12.02;;
15913;SDS011;8055;51.930;8.840;2022-10-23T07:43:15;17.92;;;13.02;;
15913;SDS011;8055;51.930;8.840;2022-10-23T07:45:42;20.80;;;12.90;;
15913;SDS011;8055;51.930;8.840;2022-10-23T07:48:11;16.35;;;11.57;;
15913;SDS011;8055;51.930;8.840;2022-10-23T07:50:37;18.30;;;11.68;;
15913;SDS011;8055;51.930;8.840;2022-10-23T07:53:03;17.35;;;11.50;;
15913;SDS011;8055;51.930;8.840;2022-10-23T07:55:28;18.65;;;11.15;;
15913;SDS011;8055;51.930;8.840;2022-10-23T07:57:54;19.10;;;12.40;;
15913;SDS011;8055;51.930;8.840;2022-10-23T08:00:19;17.40;;;11.35;;
15913;SDS011;8055;51.930;8.840;2022-10-23T08:02:44;21.17;;;12.32;;
15913;SDS011;8055;51.930;8.840;2022-10-23T08:05:10;14.18;;;11.52;;
15913;SDS011;8055;51.930;8.840;2022-10-23T08:07:35;14.77;;;10.77;;
15913;SDS011;8055;51.930;8.840;2022-10-23T08:10:00;13.63;;;10.55;;
15913;SDS011;8055;51.930;8.840;2022-10-23T08:12:26;10.43;;;9.25;;
15913;SDS011;8055;51.930;8.840;2022-10-23T08:14:51;15.30;;;10.13;;
15913;SDS011;8055;51.930;8.840;2022-10-23T08:17:17;15.00;;;9.63;;
15913;SDS011;8055;51.930;8.840;2022-10-23T08:19:42;12.27;;;8.85;;
15913;SDS011;8055;51.930;8.840;2022-10-23T08:22:10;12.45;;;8.63;;
15913;SDS011;8055;51.930;8.840;2022-10-23T08:24:36;14.70;;;8.32;;
15913;SDS011;8055;51.930;8.840;2022-10-23T08:27:02;11.93;;;7.57;;
15913;SDS011;8055;51.930;8.840;2022-10-23T08:29:27;12.73;;;7.35;;
15913;SDS011;8055;51.930;8.840;2022-10-23T08:31:53;10.77;;;7.60;;
15913;SDS011;8055;51.930;8.840;2022-10-23T08:34:20;12.57;;;6.70;;
15913;SDS011;8055;51.930;8.840;2022-10-23T08:36:46;14.38;;;6.20;;
15913;SDS011;8055;51.930;8.840;2022-10-23T08:39:11;12.60;;;6.53;;
15913;SDS011;8055;51.930;8.840;2022-10-23T08:41:40;11.35;;;5.75;;
15913;SDS011;8055;51.930;8.840;2022-10-23T08:47:12;7.57;;;5.10;;
15913;SDS011;8055;51.930;8.840;2022-10-23T08:52:14;7.32;;;4.18;;
15913;SDS011;8055;51.930;8.840;2022-10-23T08:57:42;9.38;;;4.68;;
15913;SDS011;8055;51.930;8.840;2022-10-23T09:00:15;10.30;;;5.63;;
15913;SDS011;8055;51.930;8.840;2022-10-23T09:02:45;7.82;;;4.43;;
15913;SDS011;8055;51.930;8.840;2022-10-23T09:19:09;9.38;;;4.88;;
15913;SDS011;8055;51.930;8.840;2022-10-23T09:21:38;8.00;;;4.88;;
15913;SDS011;8055;51.930;8.840;2022-10-23T09:24:04;9.13;;;4.90;;
15913;SDS011;8055;51.930;8.840;2022-10-23T09:26:29;10.70;;;6.10;;
15913;SDS011;8055;51.930;8.840;2022-10-23T09:28:56;10.05;;;5.57;;
15913;SDS011;8055;51.930;8.840;2022-10-23T09:31:31;11.57;;;6.18;;
15913;SDS011;8055;51.930;8.840;2022-10-23T09:33:57;10.85;;;5.30;;
15913;SDS011;8055;51.930;8.840;2022-10-23T09:36:25;13.18;;;5.35;;
15913;SDS011;8055;51.930;8.840;2022-10-23T09:38:54;8.52;;;5.43;;
15913;SDS011;8055;51.930;8.840;2022-10-23T09:46:39;9.85;;;5.43;;
15913;SDS011;8055;51.930;8.840;2022-10-23T09:49:22;13.02;;;5.90;;
15913;SDS011;8055;51.930;8.840;2022-10-23T09:51:58;10.48;;;5.38;;
15913;SDS011;8055;51.930;8.840;2022-10-23T09:54:30;11.68;;;5.63;;
15913;SDS011;8055;51.930;8.840;2022-10-23T09:57:02;8.02;;;5.35;;
15913;SDS011;8055;51.930;8.840;2022-10-23T09:59:50;8.73;;;5.00;;
15913;SDS011;8055;51.930;8.840;2022-10-23T10:02:27;12.45;;;5.45;;
15913;SDS011;8055;51.930;8.840;2022-10-23T10:08:13;8.02;;;4.85;;
15913;SDS011;8055;51.930;8.840;2022-10-23T10:10:49;9.88;;;4.63;;
15913;SDS011;8055;51.930;8.840;2022-10-23T10:16:03;7.00;;;4.00;;
15913;SDS011;8055;51.930;8.840;2022-10-23T10:27:18;8.95;;;4.07;;
15913;SDS011;8055;51.930;8.840;2022-10-23T10:30:13;7.72;;;4.18;;
15913;SDS011;8055;51.930;8.840;2022-10-23T10:35:47;11.10;;;4.57;;
15913;SDS011;8055;51.930;8.840;2022-10-23T10:41:34;9.48;;;4.00;;
15913;SDS011;8055;51.930;8.840;2022-10-23T10:49:19;7.43;;;3.80;;
15913;SDS011;8055;51.930;8.840;2022-10-23T10:54:50;9.45;;;3.20;;
15913;SDS011;8055;51.930;8.840;2022-10-23T10:57:23;9.70;;;3.13;;
15913;SDS011;8055;51.930;8.840;2022-10-23T10:59:56;6.72;;;2.40;;
15913;SDS011;8055;51.930;8.840;2022-10-23T11:02:31;5.47;;;2.67;;
15913;SDS011;8055;51.930;8.840;2022-10-23T11:05:47;3.63;;;2.40;;
15913;SDS011;8055;51.930;8.840;2022-10-23T11:08:06;6.93;;;2.97;;
15913;SDS011;8055;51.930;8.840;2022-10-23T11:10:41;4.20;;;2.30;;
15913;SDS011;8055;51.930;8.840;2022-10-23T11:13:24;7.78;;;2.50;;
15913;SDS011;8055;51.930;8.840;2022-10-23T11:15:52;6.03;;;2.20;;
15913;SDS011;8055;51.930;8.840;2022-10-23T11:18:24;6.43;;;2.53;;
15913;SDS011;8055;51.930;8.840;2022-10-23T11:21:05;5.78;;;2.40;;
15913;SDS011;8055;51.930;8.840;2022-10-23T11:26:54;4.38;;;2.35;;
15913;SDS011;8055;51.930;8.840;2022-10-23T11:37:42;5.28;;;2.55;;
15913;SDS011;8055;51.930;8.840;2022-10-23T11:47:55;5.13;;;2.58;;
15913;SDS011;8055;51.930;8.840;2022-10-23T11:52:57;5.68;;;2.13;;
15913;SDS011;8055;51.930;8.840;2022-10-23T11:55:25;12.13;;;2.28;;
15913;SDS011;8055;51.930;8.840;2022-10-23T12:00:32;5.55;;;2.00;;
15913;SDS011;8055;51.930;8.840;2022-10-23T12:02:59;4.57;;;2.13;;
15913;SDS011;8055;51.930;8.840;2022-10-23T12:08:01;4.70;;;2.40;;
15913;SDS011;8055;51.930;8.840;2022-10-23T12:10:30;5.85;;;2.03;;
15913;SDS011;8055;51.930;8.840;2022-10-23T12:13:01;5.93;;;1.85;;
15913;SDS011;8055;51.930;8.840;2022-10-23T12:15:31;5.65;;;2.22;;
15913;SDS011;8055;51.930;8.840;2022-10-23T12:18:14;7.65;;;2.47;;
15913;SDS011;8055;51.930;8.840;2022-10-23T12:20:49;7.07;;;2.20;;
15913;SDS011;8055;51.930;8.840;2022-10-23T12:28:48;3.15;;;2.13;;
15913;SDS011;8055;51.930;8.840;2022-10-23T12:31:36;7.28;;;2.58;;
15913;SDS011;8055;51.930;8.840;2022-10-23T12:37:03;5.28;;;2.00;;
15913;SDS011;8055;51.930;8.840;2022-10-23T12:39:41;4.43;;;1.80;;
15913;SDS011;8055;51.930;8.840;2022-10-23T12:42:20;4.63;;;2.08;;
15913;SDS011;8055;51.930;8.840;2022-10-23T12:44:59;3.78;;;1.88;;
15913;SDS011;8055;51.930;8.840;2022-10-23T12:47:27;6.18;;;2.10;;
15913;SDS011;8055;51.930;8.840;2022-10-23T12:49:54;7.28;;;2.20;;
15913;SDS011;8055;51.930;8.840;2022-10-23T12:52:20;5.80;;;2.40;;
15913;SDS011;8055;51.930;8.840;2022-10-23T12:54:46;4.88;;;2.17;;
15913;SDS011;8055;51.930;8.840;2022-10-23T12:57:16;8.13;;;2.55;;
15913;SDS011;8055;51.930;8.840;2022-10-23T12:59:46;6.03;;;2.42;;
15913;SDS011;8055;51.930;8.840;2022-10-23T13:02:12;6.55;;;2.10;;
15913;SDS011;8055;51.930;8.840;2022-10-23T13:04:46;5.22;;;2.15;;
15913;SDS011;8055;51.930;8.840;2022-10-23T13:07:16;5.15;;;2.03;;
15913;SDS011;8055;51.930;8.840;2022-10-23T13:09:43;4.57;;;1.80;;
15913;SDS011;8055;51.930;8.840;2022-10-23T13:12:23;5.85;;;2.10;;
15913;SDS011;8055;51.930;8.840;2022-10-23T13:17:38;8.73;;;2.08;;
15913;SDS011;8055;51.930;8.840;2022-10-23T13:20:09;5.95;;;2.10;;
15913;SDS011;8055;51.930;8.840;2022-10-23T13:22:47;3.83;;;2.03;;
15913;SDS011;8055;51.930;8.840;2022-10-23T13:25:38;7.22;;;2.08;;
15913;SDS011;8055;51.930;8.840;2022-10-23T13:30:35;5.47;;;1.88;;
15913;SDS011;8055;51.930;8.840;2022-10-23T13:36:00;10.63;;;2.40;;
15913;SDS011;8055;51.930;8.840;2022-10-23T13:38:32;3.72;;;2.33;;
15913;SDS011;8055;51.930;8.840;2022-10-23T13:41:00;5.23;;;1.60;;
15913;SDS011;8055;51.930;8.840;2022-10-23T13:43:27;6.32;;;1.75;;
15913;SDS011;8055;51.930;8.840;2022-10-23T13:45:55;5.20;;;1.70;;
15913;SDS011;8055;51.930;8.840;2022-10-23T13:48:22;6.15;;;1.80;;
15913;SDS011;8055;51.930;8.840;2022-10-23T13:50:48;4.85;;;1.80;;
15913;SDS011;8055;51.930;8.840;2022-10-23T13:53:13;6.63;;;2.20;;
15913;SDS011;8055;51.930;8.840;2022-10-23T13:55:41;2.75;;;1.70;;
15913;SDS011;8055;51.930;8.840;2022-10-23T13:58:08;2.63;;;1.42;;
15913;SDS011;8055;51.930;8.840;2022-10-23T14:00:34;2.47;;;1.40;;
15913;SDS011;8055;51.930;8.840;2022-10-23T14:03:00;2.78;;;0.98;;
15913;SDS011;8055;51.930;8.840;2022-10-23T14:05:26;4.47;;;1.20;;
15913;SDS011;8055;51.930;8.840;2022-10-23T14:07:51;6.72;;;1.17;;
15913;SDS011;8055;51.930;8.840;2022-10-23T14:10:16;5.43;;;1.50;;
15913;SDS011;8055;51.930;8.840;2022-10-23T14:12:42;6.38;;;1.63;;
15913;SDS011;8055;51.930;8.840;2022-10-23T14:15:08;4.85;;;1.83;;
15913;SDS011;8055;51.930;8.840;2022-10-23T14:17:34;7.47;;;1.65;;
15913;SDS011;8055;51.930;8.840;2022-10-23T14:20:00;4.63;;;1.40;;
15913;SDS011;8055;51.930;8.840;2022-10-23T14:22:26;5.82;;;1.15;;
15913;SDS011;8055;51.930;8.840;2022-10-23T14:24:51;8.45;;;1.38;;
15913;SDS011;8055;51.930;8.840;2022-10-23T14:27:17;3.42;;;1.30;;
15913;SDS011;8055;51.930;8.840;2022-10-23T14:29:42;3.60;;;1.10;;
15913;SDS011;8055;51.930;8.840;2022-10-23T14:32:08;4.70;;;1.38;;
15913;SDS011;8055;51.930;8.840;2022-10-23T14:34:34;7.18;;;1.50;;
15913;SDS011;8055;51.930;8.840;2022-10-23T14:36:59;4.80;;;1.45;;
15913;SDS011;8055;51.930;8.840;2022-10-23T14:39:24;2.63;;;1.13;;
15913;SDS011;8055;51.930;8.840;2022-10-23T14:41:50;4.20;;;1.30;;
15913;SDS011;8055;51.930;8.840;2022-10-23T14:44:15;6.10;;;1.52;;
15913;SDS011;8055;51.930;8.840;2022-10-23T14:46:40;13.10;;;1.35;;
15913;SDS011;8055;51.930;8.840;2022-10-23T14:49:06;4.88;;;1.30;;
15913;SDS011;8055;51.930;8.840;2022-10-23T14:51:31;6.80;;;1.42;;
15913;SDS011;8055;51.930;8.840;2022-10-23T14:54:00;5.18;;;1.38;;
15913;SDS011;8055;51.930;8.840;2022-10-23T14:56:28;3.15;;;1.27;;
15913;SDS011;8055;51.930;8.840;2022-10-23T14:58:55;7.68;;;1.83;;
15913;SDS011;8055;51.930;8.840;2022-10-23T15:01:26;5.40;;;1.50;;
15913;SDS011;8055;51.930;8.840;2022-10-23T15:04:12;5.03;;;1.30;;
15913;SDS011;8055;51.930;8.840;2022-10-23T15:06:38;7.63;;;1.52;;
15913;SDS011;8055;51.930;8.840;2022-10-23T15:09:04;5.43;;;1.50;;
15913;SDS011;8055;51.930;8.840;2022-10-23T15:11:29;3.42;;;1.27;;
15913;SDS011;8055;51.930;8.840;2022-10-23T15:13:55;4.57;;;1.20;;
15913;SDS011;8055;51.930;8.840;2022-10-23T15:16:23;5.45;;;1.55;;
15913;SDS011;8055;51.930;8.840;2022-10-23T15:18:49;4.07;;;1.70;;
15913;SDS011;8055;51.930;8.840;2022-10-23T15:21:15;6.03;;;1.45;;
15913;SDS011;8055;51.930;8.840;2022-10-23T15:23:41;8.13;;;2.28;;
15913;SDS011;8055;51.930;8.840;2022-10-23T15:26:10;6.13;;;1.80;;
15913;SDS011;8055;51.930;8.840;2022-10-23T15:28:38;6.70;;;1.60;;
15913;SDS011;8055;51.930;8.840;2022-10-23T15:31:03;7.65;;;2.20;;
15913;SDS011;8055;51.930;8.840;2022-10-23T15:33:29;4.03;;;1.55;;
15913;SDS011;8055;51.930;8.840;2022-10-23T15:35:54;4.45;;;1.38;;
15913;SDS011;8055;51.930;8.840;2022-10-23T15:38:21;4.63;;;1.30;;
15913;SDS011;8055;51.930;8.840;2022-10-23T15:40:46;6.72;;;1.50;;
15913;SDS011;8055;51.930;8.840;2022-10-23T15:43:13;4.22;;;1.77;;
15913;SDS011;8055;51.930;8.840;2022-10-23T15:45:39;4.97;;;1.50;;
15913;SDS011;8055;51.930;8.840;2022-10-23T15:48:05;6.55;;;1.42;;
15913;SDS011;8055;51.930;8.840;2022-10-23T15:50:31;5.45;;;1.48;;
15913;SDS011;8055;51.930;8.840;2022-10-23T15:52:57;6.53;;;1.88;;
15913;SDS011;8055;51.930;8.840;2022-10-23T15:55:23;6.55;;;1.80;;
15913;SDS011;8055;51.930;8.840;2022-10-23T15:57:48;5.50;;;1.65;;
15913;SDS011;8055;51.930;8.840;2022-10-23T16:00:14;9.40;;;1.83;;
15913;SDS011;8055;51.930;8.840;2022-10-23T16:02:40;3.85;;;1.40;;
15913;SDS011;8055;51.930;8.840;2022-10-23T16:05:06;4.22;;;1.58;;
15913;SDS011;8055;51.930;8.840;2022-10-23T16:07:32;6.68;;;1.88;;
15913;SDS011;8055;51.930;8.840;2022-10-23T16:09:57;7.50;;;1.80;;
15913;SDS011;8055;51.930;8.840;2022-10-23T16:12:22;4.30;;;1.60;;
15913;SDS011;8055;51.930;8.840;2022-10-23T16:14:48;6.15;;;1.73;;
15913;SDS011;8055;51.930;8.840;2022-10-23T16:17:14;6.05;;;1.80;;
15913;SDS011;8055;51.930;8.840;2022-10-23T16:19:39;7.63;;;1.70;;
15913;SDS011;8055;51.930;8.840;2022-10-23T16:22:05;8.38;;;1.73;;
15913;SDS011;8055;51.930;8.840;2022-10-23T16:24:32;4.30;;;1.65;;
15913;SDS011;8055;51.930;8.840;2022-10-23T16:26:58;9.18;;;2.47;;
15913;SDS011;8055;51.930;8.840;2022-10-23T16:29:24;4.82;;;1.60;;
15913;SDS011;8055;51.930;8.840;2022-10-23T16:31:51;7.43;;;2.00;;
15913;SDS011;8055;51.930;8.840;2022-10-23T16:34:17;7.68;;;2.55;;
15913;SDS011;8055;51.930;8.840;2022-10-23T16:36:43;4.25;;;1.88;;
15913;SDS011;8055;51.930;8.840;2022-10-23T16:39:09;4.25;;;1.73;;
15913;SDS011;8055;51.930;8.840;2022-10-23T16:41:35;5.38;;;2.40;;
15913;SDS011;8055;51.930;8.840;2022-10-23T16:44:00;6.35;;;2.45;;
15913;SDS011;8055;51.930;8.840;2022-10-23T16:46:26;8.82;;;2.50;;
15913;SDS011;8055;51.930;8.840;2022-10-23T16:48:51;6.13;;;2.45;;
15913;SDS011;8055;51.930;8.840;2022-10-23T16:51:19;4.07;;;1.98;;
15913;SDS011;8055;51.930;8.840;2022-10-23T16:53:46;8.05;;;1.88;;
15913;SDS011;8055;51.930;8.840;2022-10-23T16:56:13;4.57;;;2.03;;
15913;SDS011;8055;51.930;8.840;2022-10-23T16:58:41;4.28;;;1.98;;
15913;SDS011;8055;51.930;8.840;2022-10-23T17:01:08;7.47;;;2.10;;
15913;SDS011;8055;51.930;8.840;2022-10-23T17:03:42;4.50;;;1.55;;